createdAt,value
2022-08-23T00:01:43.791Z,12.88
2022-08-23T00:04:16.194Z,12.55
2022-08-23T00:06:48.172Z,14.15
2022-08-23T00:09:15.515Z,13.68
2022-08-23T00:11:48.700Z,11.35
2022-08-23T00:14:29.279Z,10.35
2022-08-23T00:16:57.441Z,12.20
2022-08-23T00:19:25.439Z,13.20
2022-08-23T00:21:54.786Z,13.20
2022-08-23T00:24:22.914Z,12.38
2022-08-23T00:26:49.762Z,15.15
2022-08-23T00:29:16.927Z,13.10
2022-08-23T00:31:43.787Z,15.20
2022-08-23T00:34:10.620Z,14.80
2022-08-23T00:36:38.184Z,16.30
2022-08-23T00:39:05.925Z,17.20
2022-08-23T00:41:34.379Z,19.35
2022-08-23T00:44:21.323Z,18.92
2022-08-23T00:47:10.100Z,15.52
2022-08-23T00:49:39.900Z,13.50
2022-08-23T00:52:29.467Z,14.80
2022-08-23T00:54:56.668Z,16.70
2022-08-23T00:57:24.471Z,17.25
2022-08-23T00:59:51.524Z,17.25
2022-08-23T01:02:19.701Z,17.75
2022-08-23T01:04:54.518Z,17.08
2022-08-23T01:07:46.940Z,18.73
2022-08-23T01:10:29.793Z,20.42
2022-08-23T01:13:08.463Z,18.80
2022-08-23T01:15:58.182Z,19.13
2022-08-23T01:18:30.229Z,19.33
2022-08-23T01:21:10.750Z,18.50
2022-08-23T01:23:59.471Z,17.95
2022-08-23T01:26:27.309Z,20.20
2022-08-23T01:28:55.715Z,21.90
2022-08-23T01:31:23.988Z,24.25
2022-08-23T01:33:57.079Z,24.85
2022-08-23T01:36:24.772Z,25.23
2022-08-23T01:38:53.093Z,22.75
2022-08-23T01:41:20.126Z,22.52
2022-08-23T01:43:48.169Z,22.35
2022-08-23T01:46:19.817Z,22.23
2022-08-23T01:48:49.477Z,19.65
2022-08-23T01:51:19.818Z,22.05
2022-08-23T01:53:47.100Z,24.65
2022-08-23T01:56:19.969Z,23.60
2022-08-23T01:58:56.517Z,24.15
2022-08-23T02:01:26.243Z,21.77
2022-08-23T02:04:04.605Z,19.20
2022-08-23T02:06:32.319Z,16.10
2022-08-23T02:09:03.801Z,14.43
2022-08-23T02:11:41.136Z,16.25
2022-08-23T02:14:10.922Z,15.52
2022-08-23T02:17:03.562Z,17.75
2022-08-23T02:19:36.294Z,19.60
2022-08-23T02:22:05.392Z,21.23
2022-08-23T02:24:32.766Z,21.02
2022-08-23T02:27:03.350Z,21.73
2022-08-23T02:29:35.418Z,20.42
2022-08-23T02:32:07.333Z,22.17
2022-08-23T02:34:36.837Z,22.50
2022-08-23T02:37:03.967Z,22.95
2022-08-23T02:39:31.102Z,23.77
2022-08-23T02:41:58.070Z,21.40
2022-08-23T02:44:25.233Z,20.30
2022-08-23T02:46:52.372Z,20.38
2022-08-23T02:49:19.650Z,22.38
2022-08-23T02:51:46.873Z,20.40
2022-08-23T02:54:14.266Z,20.77
2022-08-23T02:56:41.304Z,21.42
2022-08-23T02:59:08.857Z,21.83
2022-08-23T03:01:39.219Z,21.30
2022-08-23T03:04:25.169Z,21.00
2022-08-23T03:06:52.043Z,20.17
2022-08-23T03:09:20.584Z,20.92
2022-08-23T03:11:49.710Z,21.23
2022-08-23T03:14:17.938Z,22.90
2022-08-23T03:16:44.823Z,22.65
2022-08-23T03:19:12.953Z,20.67
2022-08-23T03:21:39.860Z,21.35
2022-08-23T03:24:11.644Z,20.20
2022-08-23T03:26:45.899Z,18.90
2022-08-23T03:29:14.926Z,22.48
2022-08-23T03:32:02.978Z,25.17
2022-08-23T03:34:34.715Z,24.35
2022-08-23T03:37:01.876Z,28.27
2022-08-23T03:39:28.906Z,29.02
2022-08-23T03:41:58.289Z,19.90
2022-08-23T03:44:27.996Z,19.20
2022-08-23T03:46:54.933Z,20.73
2022-08-23T03:49:22.133Z,20.92
2022-08-23T03:51:52.971Z,20.58
2022-08-23T03:54:20.656Z,19.50
2022-08-23T03:57:02.919Z,18.77
2022-08-23T03:59:35.219Z,21.42
2022-08-23T04:02:04.449Z,20.63
2022-08-23T04:04:31.477Z,25.85
2022-08-23T04:07:38.658Z,26.48
2022-08-23T04:10:09.010Z,28.42
2022-08-23T04:12:38.638Z,29.15
2022-08-23T04:15:13.486Z,28.35
2022-08-23T04:17:42.678Z,29.00
2022-08-23T04:20:10.221Z,29.33
2022-08-23T04:22:52.340Z,30.63
2022-08-23T04:25:34.983Z,32.58
2022-08-23T04:28:05.370Z,35.22
2022-08-23T04:30:33.389Z,35.80
2022-08-23T04:33:01.547Z,36.67
2022-08-23T04:35:29.885Z,36.05
2022-08-23T04:37:57.036Z,34.35
2022-08-23T04:40:42.939Z,36.13
2022-08-23T04:43:09.920Z,38.00
2022-08-23T04:45:39.414Z,39.33
2022-08-23T04:48:11.860Z,38.85
2022-08-23T04:50:42.515Z,37.72
2022-08-23T04:53:16.127Z,38.50
2022-08-23T04:55:52.495Z,38.65
2022-08-23T04:58:19.802Z,39.45
2022-08-23T05:00:52.486Z,38.65
2022-08-23T05:03:24.525Z,38.22
2022-08-23T05:05:53.992Z,36.95
2022-08-23T05:08:25.471Z,37.47
2022-08-23T05:10:52.816Z,36.25
2022-08-23T05:13:20.428Z,35.40
2022-08-23T05:15:51.442Z,34.35
2022-08-23T05:18:20.117Z,32.53
2022-08-23T05:20:47.219Z,33.25
2022-08-23T05:23:14.053Z,34.90
2022-08-23T05:25:55.601Z,35.70
2022-08-23T05:28:32.738Z,37.97
2022-08-23T05:31:04.498Z,36.42
2022-08-23T05:33:40.789Z,34.15
2022-08-23T05:36:08.766Z,33.15
2022-08-23T05:38:36.745Z,33.42
2022-08-23T05:41:06.894Z,31.00
2022-08-23T05:43:35.013Z,32.67
2022-08-23T05:46:13.295Z,31.17
2022-08-23T05:48:47.076Z,29.67
2022-08-23T05:51:30.035Z,34.10
2022-08-23T05:54:00.133Z,33.28
2022-08-23T05:56:35.817Z,34.75
2022-08-23T05:59:06.640Z,28.00
2022-08-23T06:01:41.323Z,26.02
2022-08-23T06:04:14.062Z,26.58
2022-08-23T06:06:44.152Z,24.90
2022-08-23T06:09:16.153Z,24.30
2022-08-23T06:11:48.423Z,26.38
2022-08-23T06:14:16.891Z,25.00
2022-08-23T06:16:47.590Z,25.48
2022-08-23T06:19:19.127Z,26.17
2022-08-23T06:22:04.175Z,26.20
2022-08-23T06:24:36.028Z,23.92
2022-08-23T06:27:13.988Z,26.25
2022-08-23T06:29:42.288Z,26.27
2022-08-23T06:32:27.537Z,24.13
2022-08-23T06:35:37.622Z,27.15
2022-08-23T06:38:07.723Z,26.30
2022-08-23T06:40:46.912Z,25.83
2022-08-23T06:43:40.211Z,26.60
2022-08-23T06:46:28.260Z,26.65
2022-08-23T06:49:00.879Z,25.67
2022-08-23T06:51:35.070Z,23.88
2022-08-23T06:54:26.420Z,22.23
2022-08-23T06:57:14.305Z,24.17
2022-08-23T07:00:01.498Z,21.98
2022-08-23T07:02:50.167Z,21.38
2022-08-23T07:05:36.167Z,19.73
2022-08-23T07:08:17.670Z,21.67
2022-08-23T07:10:44.648Z,19.83
2022-08-23T07:13:12.743Z,18.75
2022-08-23T07:15:41.907Z,19.40
2022-08-23T07:18:11.018Z,19.15
2022-08-23T07:20:40.534Z,18.45
2022-08-23T07:23:07.448Z,18.80
2022-08-23T07:25:34.305Z,19.33
2022-08-23T07:28:11.499Z,17.13
2022-08-23T07:30:42.109Z,17.52
2022-08-23T07:33:12.640Z,16.52
2022-08-23T07:35:59.547Z,16.67
2022-08-23T07:38:29.943Z,16.55
2022-08-23T07:40:58.688Z,15.40
2022-08-23T07:43:25.823Z,15.35
2022-08-23T07:45:53.678Z,15.57
2022-08-23T07:48:43.279Z,15.00
2022-08-23T07:51:15.695Z,14.35
2022-08-23T07:53:45.892Z,14.05
2022-08-23T07:56:18.283Z,15.88
2022-08-23T07:59:20.712Z,13.10
2022-08-23T08:02:06.685Z,13.48
2022-08-23T08:04:34.992Z,14.48
2022-08-23T08:07:18.390Z,15.35
2022-08-23T08:09:49.319Z,14.52
2022-08-23T08:12:17.609Z,16.02
2022-08-23T08:14:50.942Z,14.75
2022-08-23T08:17:25.439Z,15.05
2022-08-23T08:20:07.094Z,16.23
2022-08-23T08:23:00.529Z,16.33
2022-08-23T08:25:27.602Z,16.00
2022-08-23T08:27:58.371Z,17.05
2022-08-23T08:30:26.175Z,17.38
2022-08-23T08:32:53.936Z,15.63
2022-08-23T08:35:22.644Z,16.00
2022-08-23T08:37:49.874Z,16.83
2022-08-23T08:40:25.705Z,15.32
2022-08-23T08:43:11.319Z,14.85
2022-08-23T08:46:01.074Z,14.50
2022-08-23T08:48:34.949Z,12.43
2022-08-23T08:51:17.033Z,14.38
2022-08-23T08:53:49.696Z,13.57
2022-08-23T08:56:40.132Z,14.23
2022-08-23T08:59:27.241Z,14.05
2022-08-23T09:01:54.571Z,15.10
2022-08-23T09:04:32.132Z,15.75
2022-08-23T09:07:23.055Z,16.50
2022-08-23T09:10:14.961Z,16.40
2022-08-23T09:13:47.947Z,15.50
2022-08-23T09:16:43.345Z,16.48
2022-08-23T09:19:11.197Z,16.00
2022-08-23T09:21:54.868Z,17.80
2022-08-23T09:24:22.656Z,17.40
2022-08-23T09:26:58.723Z,17.52
2022-08-23T09:29:34.950Z,16.70
2022-08-23T09:32:06.603Z,17.98
2022-08-23T09:34:36.301Z,18.02
2022-08-23T09:37:25.135Z,17.75
2022-08-23T09:40:17.770Z,17.63
2022-08-23T09:42:47.353Z,17.85
2022-08-23T09:45:37.622Z,17.30
2022-08-23T09:48:13.494Z,17.02
2022-08-23T09:50:57.012Z,16.45
2022-08-23T09:53:28.106Z,18.45
2022-08-23T09:55:58.614Z,18.05
2022-08-23T09:58:44.669Z,17.50
2022-08-23T10:01:29.733Z,17.52
2022-08-23T10:04:13.152Z,17.60
2022-08-23T10:06:44.040Z,17.45
2022-08-23T10:09:27.048Z,17.05
2022-08-23T10:11:56.661Z,17.13
2022-08-23T10:14:25.974Z,17.10
2022-08-23T10:17:13.187Z,17.45
2022-08-23T10:19:43.036Z,16.13
2022-08-23T10:22:20.802Z,16.65
2022-08-23T10:25:22.357Z,16.08
2022-08-23T10:28:42.350Z,15.70
2022-08-23T10:31:21.883Z,16.13
2022-08-23T10:34:10.366Z,14.90
2022-08-23T10:36:58.130Z,14.68
2022-08-23T10:39:26.869Z,14.52
2022-08-23T10:42:25.603Z,14.30
2022-08-23T10:44:59.013Z,13.80
2022-08-23T10:47:33.775Z,13.73
2022-08-23T10:50:07.399Z,14.20
2022-08-23T10:52:46.338Z,14.02
2022-08-23T10:55:35.896Z,14.07
2022-08-23T10:58:07.580Z,14.07
2022-08-23T11:00:37.178Z,13.40
2022-08-23T11:03:29.417Z,13.80
2022-08-23T11:06:24.557Z,13.43
2022-08-23T11:09:19.255Z,13.00
2022-08-23T11:12:11.037Z,12.82
2022-08-23T11:14:45.742Z,12.60
2022-08-23T11:17:27.033Z,13.77
2022-08-23T11:20:07.945Z,13.05
2022-08-23T11:22:57.309Z,13.23
2022-08-23T11:25:27.159Z,13.98
2022-08-23T11:28:22.026Z,13.48
2022-08-23T11:30:51.974Z,13.93
2022-08-23T11:33:47.110Z,14.02
2022-08-23T11:36:18.429Z,14.65
2022-08-23T11:38:48.374Z,13.82
2022-08-23T11:41:19.422Z,14.48
2022-08-23T11:43:49.565Z,14.50
2022-08-23T11:46:24.303Z,14.10
2022-08-23T11:49:27.403Z,13.75
2022-08-23T11:52:29.343Z,14.43
2022-08-23T11:55:24.294Z,13.95
2022-08-23T11:58:13.945Z,14.20
2022-08-23T12:00:53.280Z,14.07
2022-08-23T12:03:37.078Z,14.18
2022-08-23T12:06:03.932Z,14.55
2022-08-23T12:08:44.485Z,14.23
2022-08-23T12:11:15.886Z,13.93
2022-08-23T12:13:56.444Z,14.02
2022-08-23T12:16:24.212Z,13.88
2022-08-23T12:18:51.301Z,13.18
2022-08-23T12:21:27.663Z,13.88
2022-08-23T12:24:15.385Z,13.43
2022-08-23T12:26:42.140Z,13.35
2022-08-23T12:29:27.090Z,13.57
2022-08-23T12:32:13.132Z,13.73
2022-08-23T12:35:03.004Z,13.70
2022-08-23T12:38:05.303Z,13.95
2022-08-23T12:40:39.811Z,13.50
2022-08-23T12:43:17.498Z,13.70
2022-08-23T12:45:53.475Z,13.40
2022-08-23T12:48:25.124Z,12.95
2022-08-23T12:51:07.090Z,12.80
2022-08-23T12:53:42.620Z,13.57
2022-08-23T12:56:15.656Z,13.98
2022-08-23T12:58:46.720Z,13.20
2022-08-23T13:01:24.696Z,12.85
2022-08-23T13:04:13.891Z,13.63
2022-08-23T13:06:49.571Z,13.30
2022-08-23T13:09:16.441Z,13.18
2022-08-23T13:11:44.517Z,12.50
2022-08-23T13:14:36.081Z,13.23
2022-08-23T13:17:23.822Z,12.00
2022-08-23T13:19:53.492Z,12.52
2022-08-23T13:22:25.911Z,11.88
2022-08-23T13:25:26.730Z,12.25
2022-08-23T13:27:47.893Z,11.70
2022-08-23T13:30:14.636Z,11.32
2022-08-23T13:32:50.779Z,11.82
2022-08-23T13:35:49.618Z,10.98
2022-08-23T13:38:20.853Z,11.02
2022-08-23T13:40:54.280Z,11.85
2022-08-23T13:43:27.202Z,12.27
2022-08-23T13:45:57.007Z,13.20
2022-08-23T13:48:28.001Z,13.50
2022-08-23T13:51:14.946Z,13.57
2022-08-23T13:53:41.836Z,13.77
2022-08-23T13:56:08.820Z,12.77
2022-08-23T13:58:36.221Z,12.13
2022-08-23T14:01:04.691Z,13.30
2022-08-23T14:03:32.487Z,12.70
2022-08-23T14:05:59.381Z,11.95
2022-08-23T14:08:26.237Z,11.50
2022-08-23T14:10:53.253Z,12.35
2022-08-23T14:13:27.471Z,12.15
2022-08-23T14:15:58.752Z,13.05
2022-08-23T14:21:30.643Z,13.27
2022-08-23T14:23:57.570Z,12.52
2022-08-23T14:26:24.479Z,12.00
2022-08-23T14:28:54.269Z,12.07
2022-08-23T14:31:21.779Z,12.38
2022-08-23T14:33:48.788Z,11.90
2022-08-23T14:36:16.090Z,12.88
2022-08-23T14:38:43.069Z,12.20
2022-08-23T14:41:16.202Z,11.48
2022-08-23T14:43:43.021Z,12.20
2022-08-23T14:46:09.890Z,13.38
2022-08-23T14:48:36.998Z,12.43
2022-08-23T14:51:04.473Z,12.32
2022-08-23T14:53:34.247Z,11.95
2022-08-23T14:56:20.699Z,12.32
2022-08-23T14:58:49.886Z,11.65
2022-08-23T15:01:18.348Z,11.43
2022-08-23T15:03:46.454Z,11.68
2022-08-23T15:06:14.980Z,11.90
2022-08-23T15:08:42.485Z,11.85
2022-08-23T15:13:59.941Z,11.40
2022-08-23T15:16:27.796Z,11.75
2022-08-23T15:18:55.354Z,11.80
2022-08-23T15:21:22.389Z,11.80
2022-08-23T15:23:49.678Z,12.30
2022-08-23T15:26:21.044Z,11.50
2022-08-23T15:28:47.992Z,11.68
2022-08-23T15:31:16.877Z,12.27
2022-08-23T15:33:43.991Z,11.73
2022-08-23T15:36:15.522Z,12.02
2022-08-23T15:38:44.587Z,12.02
2022-08-23T15:41:11.613Z,13.30
2022-08-23T15:43:39.791Z,11.85
2022-08-23T15:46:09.505Z,12.57
2022-08-23T15:48:43.491Z,11.25
2022-08-23T15:51:11.204Z,11.40
2022-08-23T15:53:39.621Z,11.18
2022-08-23T15:56:15.304Z,11.88
2022-08-23T15:58:42.698Z,11.88
2022-08-23T16:01:10.247Z,11.68
2022-08-23T16:03:39.325Z,11.82
2022-08-23T16:06:06.657Z,12.35
2022-08-23T16:08:38.177Z,12.50
2022-08-23T16:11:12.079Z,13.68
2022-08-23T16:13:45.149Z,12.63
2022-08-23T16:16:25.632Z,12.45
2022-08-23T16:18:54.146Z,12.27
2022-08-23T16:21:23.348Z,11.65
2022-08-23T16:23:50.205Z,11.90
2022-08-23T16:26:22.344Z,12.20
2022-08-23T16:28:59.470Z,11.73
2022-08-23T16:31:38.410Z,12.10
2022-08-23T16:34:09.943Z,11.93
2022-08-23T16:36:39.671Z,11.88
2022-08-23T16:39:07.590Z,12.15
2022-08-23T16:41:34.651Z,11.63
2022-08-23T16:44:01.601Z,12.13
2022-08-23T16:46:31.264Z,12.50
2022-08-23T16:48:58.321Z,13.18
2022-08-23T16:51:25.824Z,13.07
2022-08-23T16:54:01.820Z,15.68
2022-08-23T16:56:31.920Z,15.57
2022-08-23T16:58:59.300Z,14.98
2022-08-23T17:01:27.091Z,14.80
2022-08-23T17:03:54.091Z,14.98
2022-08-23T17:06:21.137Z,15.50
2022-08-23T17:08:48.332Z,15.23
2022-08-23T17:11:18.963Z,16.38
2022-08-23T17:13:46.636Z,16.17
2022-08-23T17:16:13.641Z,17.38
2022-08-23T17:18:41.091Z,17.00
2022-08-23T17:21:09.138Z,16.73
2022-08-23T17:23:40.415Z,15.35
2022-08-23T17:26:11.249Z,17.23
2022-08-23T17:28:38.116Z,16.55
2022-08-23T17:31:05.048Z,15.07
2022-08-23T17:33:31.894Z,17.92
2022-08-23T17:35:58.786Z,17.30
2022-08-23T17:38:25.684Z,18.50
2022-08-23T17:40:53.087Z,19.15
2022-08-23T17:43:19.905Z,21.25
2022-08-23T17:45:49.341Z,26.13
2022-08-23T17:48:17.824Z,25.63
2022-08-23T17:50:46.143Z,34.20
2022-08-23T17:53:15.191Z,37.22
2022-08-23T17:55:43.002Z,50.63
2022-08-23T17:58:10.878Z,53.88
2022-08-23T18:00:39.596Z,61.63
2022-08-23T18:03:07.752Z,58.10
2022-08-23T18:05:38.391Z,49.85
2022-08-23T18:08:05.251Z,33.88
2022-08-23T18:10:32.180Z,28.05
2022-08-23T18:12:59.158Z,26.23
2022-08-23T18:15:28.885Z,28.35
2022-08-23T18:17:58.108Z,26.58
2022-08-23T18:20:27.512Z,25.25
2022-08-23T18:22:58.464Z,25.38
2022-08-23T18:25:26.819Z,28.38
2022-08-23T18:28:09.827Z,26.55
2022-08-23T18:30:50.569Z,24.55
2022-08-23T18:33:19.681Z,23.83
2022-08-23T18:35:52.442Z,22.90
2022-08-23T18:38:19.521Z,23.20
2022-08-23T18:40:48.062Z,24.00
2022-08-23T18:43:24.361Z,25.92
2022-08-23T18:45:53.489Z,25.10
2022-08-23T18:48:22.244Z,26.55
2022-08-23T18:50:50.129Z,26.30
2022-08-23T18:53:19.527Z,24.42
2022-08-23T18:55:46.759Z,25.30
2022-08-23T18:58:13.964Z,22.77
2022-08-23T19:00:43.003Z,23.52
2022-08-23T19:03:11.150Z,23.20
2022-08-23T19:05:42.310Z,22.45
2022-08-23T19:08:11.509Z,22.90
2022-08-23T19:10:39.400Z,25.02
2022-08-23T19:13:08.446Z,25.55
2022-08-23T19:15:36.938Z,24.65
2022-08-23T19:18:04.639Z,24.63
2022-08-23T19:20:32.408Z,23.58
2022-08-23T19:22:59.670Z,25.00
2022-08-23T19:25:27.805Z,24.35
2022-08-23T19:27:58.550Z,22.00
2022-08-23T19:30:28.623Z,22.40
2022-08-23T19:32:56.604Z,21.80
2022-08-23T19:35:23.775Z,22.42
2022-08-23T19:37:50.791Z,21.55
2022-08-23T19:40:17.934Z,23.05
2022-08-23T19:42:44.954Z,23.35
2022-08-23T19:45:12.381Z,25.45
2022-08-23T19:47:40.310Z,26.33
2022-08-23T19:50:09.682Z,26.42
2022-08-23T19:52:37.041Z,23.65
2022-08-23T19:55:07.420Z,23.90
2022-08-23T19:57:35.449Z,26.35
2022-08-23T20:00:09.403Z,25.45
2022-08-23T20:02:36.388Z,26.05
2022-08-23T20:05:05.390Z,28.58
2022-08-23T20:07:32.564Z,28.13
2022-08-23T20:09:59.638Z,26.02
2022-08-23T20:12:28.903Z,24.92
2022-08-23T20:14:56.001Z,25.13
2022-08-23T20:17:23.225Z,24.80
2022-08-23T20:19:50.607Z,26.95
2022-08-23T20:22:36.189Z,28.67
2022-08-23T20:25:05.518Z,27.88
2022-08-23T20:27:33.862Z,32.00
2022-08-23T20:30:01.293Z,32.38
2022-08-23T20:32:30.179Z,35.00
2022-08-23T20:34:57.651Z,35.35
2022-08-23T20:37:25.113Z,35.55
2022-08-23T20:39:52.462Z,36.20
2022-08-23T20:42:19.572Z,37.17
2022-08-23T20:44:46.431Z,35.97
2022-08-23T20:47:13.531Z,37.92
2022-08-23T20:49:40.524Z,39.53
2022-08-23T20:52:08.305Z,38.55
2022-08-23T20:54:35.439Z,40.08
2022-08-23T20:57:02.396Z,41.30
2022-08-23T20:59:29.288Z,42.40
2022-08-23T21:01:56.338Z,45.15
2022-08-23T21:04:30.051Z,43.75
2022-08-23T21:06:57.958Z,42.25
2022-08-23T21:09:29.660Z,40.85
2022-08-23T21:11:57.312Z,44.15
2022-08-23T21:14:24.394Z,43.38
2022-08-23T21:16:51.312Z,38.95
2022-08-23T21:19:19.093Z,38.90
2022-08-23T21:21:46.521Z,41.22
2022-08-23T21:24:14.359Z,40.10
2022-08-23T21:26:41.279Z,38.35
2022-08-23T21:29:09.715Z,42.63
2022-08-23T21:31:37.336Z,40.17
2022-08-23T21:34:04.540Z,41.83
2022-08-23T21:36:31.650Z,41.03
2022-08-23T21:38:58.471Z,44.92
2022-08-23T21:41:35.748Z,39.53
2022-08-23T21:44:05.854Z,42.55
2022-08-23T21:46:33.343Z,43.10
2022-08-23T21:49:00.495Z,45.55
2022-08-23T21:51:27.745Z,42.08
2022-08-23T21:53:54.869Z,48.83
2022-08-23T21:56:21.987Z,48.40
2022-08-23T21:58:50.567Z,48.08
2022-08-23T22:01:18.755Z,50.25
2022-08-23T22:03:45.834Z,51.03
2022-08-23T22:06:15.676Z,49.55
2022-08-23T22:08:43.765Z,52.00
2022-08-23T22:11:12.066Z,51.72
2022-08-23T22:13:49.456Z,49.58
2022-08-23T22:16:16.485Z,50.58
2022-08-23T22:18:43.434Z,46.42
2022-08-23T22:21:10.592Z,44.22
2022-08-23T22:23:37.716Z,46.75
2022-08-23T22:26:06.746Z,48.20
2022-08-23T22:28:34.266Z,49.92
2022-08-23T22:31:03.206Z,50.63
2022-08-23T22:33:30.255Z,51.30
2022-08-23T22:36:10.132Z,50.45
2022-08-23T22:38:38.078Z,49.90
2022-08-23T22:41:05.437Z,49.35
2022-08-23T22:43:32.626Z,46.85
2022-08-23T22:46:01.423Z,48.03
2022-08-23T22:48:31.471Z,47.42
2022-08-23T22:51:09.891Z,43.42
2022-08-23T22:53:38.787Z,44.67
2022-08-23T22:56:06.752Z,43.45
2022-08-23T22:58:34.313Z,43.05
2022-08-23T23:01:03.715Z,40.70
2022-08-23T23:03:34.489Z,42.28
2022-08-23T23:06:02.079Z,42.35
2022-08-23T23:08:29.033Z,41.33
2022-08-23T23:11:01.829Z,39.88
2022-08-23T23:13:31.513Z,47.08
2022-08-23T23:16:02.225Z,49.55
2022-08-23T23:18:29.322Z,45.90
2022-08-23T23:21:02.145Z,45.33
2022-08-23T23:23:30.815Z,44.92
2022-08-23T23:25:58.157Z,42.97
2022-08-23T23:28:25.849Z,43.97
2022-08-23T23:30:55.552Z,42.65
2022-08-23T23:33:22.602Z,46.17
2022-08-23T23:35:51.690Z,43.72
2022-08-23T23:38:19.125Z,49.38
2022-08-23T23:40:46.270Z,50.75
2022-08-23T23:43:13.637Z,50.33
2022-08-23T23:45:41.389Z,53.88
2022-08-23T23:48:08.766Z,53.42
2022-08-23T23:50:39.710Z,52.35
2022-08-23T23:53:11.829Z,51.20
2022-08-23T23:55:38.720Z,53.25
2022-08-23T23:58:05.832Z,55.58
